Watford, Canada
Current Conditions -  °F | °C
As of 9:00 AM on Friday 24 Oct 2014 (Local Time) from CYZR Reporting Station
Clear Clear  
Wind Chill:   Ceiling: Unl
Heat Index:   Visibility: 9mi
Dew Point:   Wind: 3mph
Humidity: 100%   Direction: 190°S
Pressure: 30.07"   Gusts: NA
Location:  42.95°N, 81.88°W
Report Text: CYZR 241300Z AUTO 19003KT 9SM CLR 03/03 A3007 RMK SLP189
Loading
Personal Weather Stations






























Interactive Weather Map
Tropical Storm Tracking
New forecast layout! Learn more

10-Day Weather Forecast

Advertisements
Track Severe Weather on mobile